Terminal Aerodrome Forecast
Issued by NWS Wakefield, VA

Home | Current Version | Previous Version | Text Only | Print | Product List | Glossary On
Versions: 1 2 3 4 5 6 7 8 9 10 11 12 13 14 15 16 17 18 19 20 21
000
FTUS41 KAKQ 121300 AAA
TAFRIC
TAF AMD
KRIC 121340Z 1214/1312 24006KT P6SM BKN013 BKN300
     FM121400 26005KT P6SM SCT025
     FM130400 20005KT P6SM SCT250=

USA.gov is the U.S. government's official web portal to all federal, state and local government web resources and services.